Airfield :
LOGIN :

Register | Disclaimer

   EN    FR    IT 

 










Legend :    VFR   Marginal VFR   IFR   Intensive IFR   Very Intensive IFR
Visi :
Ceiling :
>= 8 km
>= 3000ft
5 to 8 km
1000 to 3000 ft
1500m to 5 km
500 to 1000 ft
800 to 1500m
200 to 500 ft
< 800m
< 200 ft
Symbols :   Thunderstorms  Fog  Heavy snow  Heavy precipitations  Wind > 20 kt
SIGMETs :     Misc.  Thunderstorms  Icing  Turbulence  Mountain Waves  Volcanic Ashes






- Airport Elevation : 197 ft
- IATA code : XOG


LFMO - Orange

CURRENT METAR :
  • 070730Z AUTO 35026G38KT CAVOK 23/08 Q1019 NOSIG

EXPIRED METARs :
  • 070700Z AUTO 36023KT CAVOK 22/08 Q1019 BECMG 35025G35KT
  • 070630Z AUTO 35023G40KT CAVOK 22/08 Q1019 NOSIG
  • 070600Z AUTO 35021G35KT CAVOK 21/08 Q1019 NOSIG
  • 070530Z AUTO 35024G36KT 5000 0900 R14/1200U // NSC 21/08 Q1018
  • 070500Z AUTO 35022G33KT 6000 2200 NSC 20/08 Q1019 NOSIG

TAF AMD TAF LFMO
Valid from the 07 at 05:00 until the 08 at 03:00 UTC


070512Z 0705/0803 35025G35KT CAVOK TX30/0714Z TN20/0705Z
TEMPO 0712/0802 35030G45KT



MET'MAP, your aeronautical weather chart ! - Copyright ORBIFLY December 2007 - Disclaimer

ORBIFLY MET'MAP TEAM :

Programming & Development : Alexandra Zaïnal
Original concept : Baudouin d'Aumeries
Technical & hardware support : Manuel Goepfert
Assistance : Marc-Olivier Méhu




SOURCES & CREDITS :

   NOAA